sensor_id;sensor_type;location;lat;lon;timestamp;pressure;altitude;pressure_sealevel;temperature;humidity
7660;BME280;3872;47.902;8.162;2022-08-19T00:01:26;91711.44;;;15.83;100.00
7660;BME280;3872;47.902;8.162;2022-08-19T00:03:55;91708.34;;;15.81;100.00
7660;BME280;3872;47.902;8.162;2022-08-19T00:06:22;91716.84;;;15.74;100.00
7660;BME280;3872;47.902;8.162;2022-08-19T00:08:49;91726.44;;;15.79;100.00
7660;BME280;3872;47.902;8.162;2022-08-19T00:11:17;91725.03;;;15.81;100.00
7660;BME280;3872;47.902;8.162;2022-08-19T00:13:44;91724.50;;;15.88;100.00
7660;BME280;3872;47.902;8.162;2022-08-19T00:16:11;91711.75;;;15.81;100.00
7660;BME280;3872;47.902;8.162;2022-08-19T00:18:38;91709.56;;;15.83;100.00
7660;BME280;3872;47.902;8.162;2022-08-19T00:21:04;91712.44;;;15.90;100.00
7660;BME280;3872;47.902;8.162;2022-08-19T00:23:33;91717.41;;;15.92;100.00
7660;BME280;3872;47.902;8.162;2022-08-19T00:26:01;91724.72;;;15.83;100.00
7660;BME280;3872;47.902;8.162;2022-08-19T00:28:28;91724.56;;;15.79;100.00
7660;BME280;3872;47.902;8.162;2022-08-19T00:30:55;91715.53;;;15.80;100.00
7660;BME280;3872;47.902;8.162;2022-08-19T00:33:23;91711.28;;;15.67;100.00
7660;BME280;3872;47.902;8.162;2022-08-19T00:35:49;91712.16;;;15.59;100.00
7660;BME280;3872;47.902;8.162;2022-08-19T00:38:16;91716.59;;;15.67;100.00
7660;BME280;3872;47.902;8.162;2022-08-19T00:40:43;91717.47;;;15.71;100.00
7660;BME280;3872;47.902;8.162;2022-08-19T00:43:18;91703.75;;;15.57;100.00
7660;BME280;3872;47.902;8.162;2022-08-19T00:45:45;91709.22;;;15.52;100.00
7660;BME280;3872;47.902;8.162;2022-08-19T00:48:13;91706.22;;;15.62;100.00
7660;BME280;3872;47.902;8.162;2022-08-19T00:50:40;91712.53;;;15.70;100.00
7660;BME280;3872;47.902;8.162;2022-08-19T00:53:09;91705.00;;;15.72;100.00
7660;BME280;3872;47.902;8.162;2022-08-19T00:55:37;91702.78;;;15.74;100.00
7660;BME280;3872;47.902;8.162;2022-08-19T00:58:11;91706.22;;;15.74;100.00
7660;BME280;3872;47.902;8.162;2022-08-19T01:00:39;91707.09;;;15.78;100.00
7660;BME280;3872;47.902;8.162;2022-08-19T01:03:08;91705.22;;;15.66;100.00
7660;BME280;3872;47.902;8.162;2022-08-19T01:05:36;91707.66;;;15.72;100.00
7660;BME280;3872;47.902;8.162;2022-08-19T01:08:05;91708.00;;;15.70;100.00
7660;BME280;3872;47.902;8.162;2022-08-19T01:10:37;91710.22;;;15.80;100.00
7660;BME280;3872;47.902;8.162;2022-08-19T01:13:04;91707.88;;;15.79;100.00
7660;BME280;3872;47.902;8.162;2022-08-19T01:15:33;91700.06;;;15.82;100.00
7660;BME280;3872;47.902;8.162;2022-08-19T01:18:06;91705.13;;;15.75;100.00
7660;BME280;3872;47.902;8.162;2022-08-19T01:20:34;91703.25;;;15.76;100.00
7660;BME280;3872;47.902;8.162;2022-08-19T01:23:03;91696.72;;;15.73;100.00
7660;BME280;3872;47.902;8.162;2022-08-19T01:25:33;91698.72;;;15.76;100.00
7660;BME280;3872;47.902;8.162;2022-08-19T01:28:01;91691.63;;;15.68;100.00
7660;BME280;3872;47.902;8.162;2022-08-19T01:30:31;91686.56;;;15.75;100.00
7660;BME280;3872;47.902;8.162;2022-08-19T01:32:58;91680.09;;;15.64;100.00
7660;BME280;3872;47.902;8.162;2022-08-19T01:35:28;91684.53;;;15.60;100.00
7660;BME280;3872;47.902;8.162;2022-08-19T01:37:57;91680.78;;;15.73;100.00
7660;BME280;3872;47.902;8.162;2022-08-19T01:40:28;91676.03;;;15.66;100.00
7660;BME280;3872;47.902;8.162;2022-08-19T01:42:56;91675.94;;;15.75;100.00
7660;BME280;3872;47.902;8.162;2022-08-19T01:45:25;91679.69;;;15.74;100.00
7660;BME280;3872;47.902;8.162;2022-08-19T01:47:52;91674.63;;;15.69;100.00
7660;BME280;3872;47.902;8.162;2022-08-19T01:50:20;91671.59;;;15.71;100.00
7660;BME280;3872;47.902;8.162;2022-08-19T01:52:47;91666.75;;;15.60;100.00
7660;BME280;3872;47.902;8.162;2022-08-19T01:55:16;91667.91;;;15.51;100.00
7660;BME280;3872;47.902;8.162;2022-08-19T01:57:49;91667.84;;;15.59;100.00
7660;BME280;3872;47.902;8.162;2022-08-19T02:00:18;91664.88;;;15.61;100.00
7660;BME280;3872;47.902;8.162;2022-08-19T02:02:45;91663.53;;;15.67;100.00
7660;BME280;3872;47.902;8.162;2022-08-19T02:05:13;91670.03;;;15.57;100.00
7660;BME280;3872;47.902;8.162;2022-08-19T02:07:40;91672.25;;;15.55;100.00
7660;BME280;3872;47.902;8.162;2022-08-19T02:10:09;91681.22;;;15.63;100.00
7660;BME280;3872;47.902;8.162;2022-08-19T02:12:36;91687.00;;;15.77;100.00
7660;BME280;3872;47.902;8.162;2022-08-19T02:15:06;91678.50;;;15.84;100.00
7660;BME280;3872;47.902;8.162;2022-08-19T02:17:32;91679.56;;;15.71;100.00
7660;BME280;3872;47.902;8.162;2022-08-19T02:19:59;91683.69;;;15.80;100.00
7660;BME280;3872;47.902;8.162;2022-08-19T02:22:26;91683.25;;;15.90;100.00
7660;BME280;3872;47.902;8.162;2022-08-19T02:24:54;91680.00;;;15.60;100.00
7660;BME280;3872;47.902;8.162;2022-08-19T02:27:21;91668.53;;;15.69;100.00
7660;BME280;3872;47.902;8.162;2022-08-19T02:29:48;91663.88;;;15.78;100.00
7660;BME280;3872;47.902;8.162;2022-08-19T02:32:18;91664.09;;;15.85;100.00
7660;BME280;3872;47.902;8.162;2022-08-19T02:34:45;91657.59;;;15.82;100.00
7660;BME280;3872;47.902;8.162;2022-08-19T02:37:11;91662.22;;;15.73;100.00
7660;BME280;3872;47.902;8.162;2022-08-19T02:39:52;91665.66;;;15.86;100.00
7660;BME280;3872;47.902;8.162;2022-08-19T02:42:19;91667.13;;;15.83;100.00
7660;BME280;3872;47.902;8.162;2022-08-19T02:44:45;91665.97;;;15.72;100.00
7660;BME280;3872;47.902;8.162;2022-08-19T02:47:12;91673.28;;;15.87;100.00
7660;BME280;3872;47.902;8.162;2022-08-19T02:49:40;91668.44;;;15.77;100.00
7660;BME280;3872;47.902;8.162;2022-08-19T02:52:07;91668.13;;;15.91;100.00
7660;BME280;3872;47.902;8.162;2022-08-19T02:54:34;91671.19;;;15.81;100.00
7660;BME280;3872;47.902;8.162;2022-08-19T02:57:01;91672.97;;;15.77;100.00
7660;BME280;3872;47.902;8.162;2022-08-19T02:59:29;91674.63;;;15.81;100.00
7660;BME280;3872;47.902;8.162;2022-08-19T03:01:56;91673.63;;;15.86;100.00
7660;BME280;3872;47.902;8.162;2022-08-19T03:04:22;91682.25;;;15.83;100.00
7660;BME280;3872;47.902;8.162;2022-08-19T03:06:51;91687.41;;;15.67;100.00
7660;BME280;3872;47.902;8.162;2022-08-19T03:09:19;91686.34;;;15.80;100.00
7660;BME280;3872;47.902;8.162;2022-08-19T03:11:45;91694.38;;;15.72;100.00
7660;BME280;3872;47.902;8.162;2022-08-19T03:14:12;91686.47;;;15.84;100.00
7660;BME280;3872;47.902;8.162;2022-08-19T03:16:43;91692.19;;;15.86;100.00
7660;BME280;3872;47.902;8.162;2022-08-19T03:19:10;91685.22;;;15.81;100.00
7660;BME280;3872;47.902;8.162;2022-08-19T03:21:37;91675.72;;;15.80;100.00
7660;BME280;3872;47.902;8.162;2022-08-19T03:24:07;91674.38;;;15.62;100.00
7660;BME280;3872;47.902;8.162;2022-08-19T03:26:37;91670.19;;;15.85;100.00
7660;BME280;3872;47.902;8.162;2022-08-19T03:29:05;91679.47;;;15.79;100.00
7660;BME280;3872;47.902;8.162;2022-08-19T03:31:31;91685.09;;;15.78;100.00
7660;BME280;3872;47.902;8.162;2022-08-19T03:33:58;91692.56;;;15.84;100.00
7660;BME280;3872;47.902;8.162;2022-08-19T03:36:26;91707.16;;;15.90;100.00
7660;BME280;3872;47.902;8.162;2022-08-19T03:38:58;91703.13;;;15.72;100.00
7660;BME280;3872;47.902;8.162;2022-08-19T03:41:28;91705.44;;;15.74;100.00
7660;BME280;3872;47.902;8.162;2022-08-19T03:43:56;91705.28;;;15.91;100.00
7660;BME280;3872;47.902;8.162;2022-08-19T03:46:25;91706.47;;;15.93;100.00
7660;BME280;3872;47.902;8.162;2022-08-19T03:48:54;91709.09;;;15.69;100.00
7660;BME280;3872;47.902;8.162;2022-08-19T03:51:24;91704.38;;;15.87;100.00
7660;BME280;3872;47.902;8.162;2022-08-19T03:53:51;91700.94;;;15.86;100.00
7660;BME280;3872;47.902;8.162;2022-08-19T03:56:19;91704.69;;;15.85;100.00
7660;BME280;3872;47.902;8.162;2022-08-19T03:58:47;91708.47;;;15.84;100.00
7660;BME280;3872;47.902;8.162;2022-08-19T04:01:16;91714.06;;;15.71;100.00
7660;BME280;3872;47.902;8.162;2022-08-19T04:03:44;91714.81;;;15.71;100.00
7660;BME280;3872;47.902;8.162;2022-08-19T04:06:13;91706.69;;;15.88;100.00
7660;BME280;3872;47.902;8.162;2022-08-19T04:08:41;91709.03;;;15.90;100.00
7660;BME280;3872;47.902;8.162;2022-08-19T04:11:09;91711.13;;;15.84;100.00
7660;BME280;3872;47.902;8.162;2022-08-19T04:13:36;91707.47;;;15.89;100.00
7660;BME280;3872;47.902;8.162;2022-08-19T04:16:05;91701.84;;;15.90;100.00
7660;BME280;3872;47.902;8.162;2022-08-19T04:18:33;91703.16;;;15.84;100.00
7660;BME280;3872;47.902;8.162;2022-08-19T04:20:59;91699.19;;;15.90;100.00
7660;BME280;3872;47.902;8.162;2022-08-19T04:23:26;91698.19;;;15.95;100.00
7660;BME280;3872;47.902;8.162;2022-08-19T04:25:54;91701.06;;;15.90;100.00
7660;BME280;3872;47.902;8.162;2022-08-19T04:28:21;91703.69;;;15.78;100.00
7660;BME280;3872;47.902;8.162;2022-08-19T04:30:50;91702.16;;;15.77;100.00
7660;BME280;3872;47.902;8.162;2022-08-19T04:33:21;91695.84;;;15.81;100.00
7660;BME280;3872;47.902;8.162;2022-08-19T04:35:49;91699.06;;;15.87;100.00
7660;BME280;3872;47.902;8.162;2022-08-19T04:38:18;91682.69;;;15.85;100.00
7660;BME280;3872;47.902;8.162;2022-08-19T04:40:50;91692.19;;;15.86;100.00
7660;BME280;3872;47.902;8.162;2022-08-19T04:43:36;91692.44;;;15.93;100.00
7660;BME280;3872;47.902;8.162;2022-08-19T04:46:04;91698.50;;;15.93;100.00
7660;BME280;3872;47.902;8.162;2022-08-19T04:48:32;91706.44;;;15.69;100.00
7660;BME280;3872;47.902;8.162;2022-08-19T04:50:59;91700.50;;;15.84;100.00
7660;BME280;3872;47.902;8.162;2022-08-19T04:53:26;91705.47;;;15.86;100.00
7660;BME280;3872;47.902;8.162;2022-08-19T04:55:54;91703.63;;;15.98;100.00
7660;BME280;3872;47.902;8.162;2022-08-19T04:58:21;91718.00;;;16.10;100.00
7660;BME280;3872;47.902;8.162;2022-08-19T05:00:48;91723.31;;;15.97;100.00
7660;BME280;3872;47.902;8.162;2022-08-19T05:03:15;91715.66;;;15.84;100.00
7660;BME280;3872;47.902;8.162;2022-08-19T05:05:44;91725.28;;;15.88;100.00
7660;BME280;3872;47.902;8.162;2022-08-19T05:08:15;91729.03;;;15.87;100.00
7660;BME280;3872;47.902;8.162;2022-08-19T05:10:46;91728.47;;;15.94;100.00
7660;BME280;3872;47.902;8.162;2022-08-19T05:13:14;91731.38;;;16.01;100.00
7660;BME280;3872;47.902;8.162;2022-08-19T05:15:41;91727.38;;;16.07;100.00
7660;BME280;3872;47.902;8.162;2022-08-19T05:18:11;91727.03;;;15.84;100.00
7660;BME280;3872;47.902;8.162;2022-08-19T05:20:57;91735.25;;;16.03;100.00
7660;BME280;3872;47.902;8.162;2022-08-19T05:23:41;91732.03;;;15.98;100.00
7660;BME280;3872;47.902;8.162;2022-08-19T05:26:09;91733.69;;;16.02;100.00
7660;BME280;3872;47.902;8.162;2022-08-19T05:28:36;91731.81;;;16.03;100.00
7660;BME280;3872;47.902;8.162;2022-08-19T05:31:03;91735.13;;;16.00;100.00
7660;BME280;3872;47.902;8.162;2022-08-19T05:33:29;91745.81;;;15.79;100.00
7660;BME280;3872;47.902;8.162;2022-08-19T05:35:57;91744.41;;;16.06;100.00
7660;BME280;3872;47.902;8.162;2022-08-19T05:38:24;91745.63;;;15.84;100.00
7660;BME280;3872;47.902;8.162;2022-08-19T05:40:51;91748.84;;;16.14;100.00
7660;BME280;3872;47.902;8.162;2022-08-19T05:43:17;91753.22;;;15.86;100.00
7660;BME280;3872;47.902;8.162;2022-08-19T05:45:44;91754.06;;;16.11;100.00
7660;BME280;3872;47.902;8.162;2022-08-19T05:48:11;91759.28;;;16.19;100.00
7660;BME280;3872;47.902;8.162;2022-08-19T05:50:39;91754.84;;;16.23;100.00
7660;BME280;3872;47.902;8.162;2022-08-19T05:53:08;91757.09;;;15.76;100.00
7660;BME280;3872;47.902;8.162;2022-08-19T05:55:35;91761.88;;;15.95;100.00
7660;BME280;3872;47.902;8.162;2022-08-19T05:58:03;91761.16;;;16.19;100.00
7660;BME280;3872;47.902;8.162;2022-08-19T06:00:33;91766.94;;;16.33;100.00
7660;BME280;3872;47.902;8.162;2022-08-19T06:02:59;91763.13;;;16.10;100.00
7660;BME280;3872;47.902;8.162;2022-08-19T06:05:28;91765.78;;;16.22;100.00
7660;BME280;3872;47.902;8.162;2022-08-19T06:07:55;91766.25;;;16.24;100.00
7660;BME280;3872;47.902;8.162;2022-08-19T06:10:23;91770.34;;;16.33;100.00
7660;BME280;3872;47.902;8.162;2022-08-19T06:12:49;91774.97;;;16.24;100.00
7660;BME280;3872;47.902;8.162;2022-08-19T06:15:16;91771.66;;;16.15;100.00
7660;BME280;3872;47.902;8.162;2022-08-19T06:17:44;91773.91;;;15.92;100.00
7660;BME280;3872;47.902;8.162;2022-08-19T06:20:13;91767.75;;;16.00;100.00
7660;BME280;3872;47.902;8.162;2022-08-19T06:22:41;91774.63;;;16.14;100.00
7660;BME280;3872;47.902;8.162;2022-08-19T06:25:08;91779.66;;;16.39;100.00
7660;BME280;3872;47.902;8.162;2022-08-19T06:27:37;91771.34;;;16.41;100.00
7660;BME280;3872;47.902;8.162;2022-08-19T06:30:04;91774.44;;;16.31;100.00
7660;BME280;3872;47.902;8.162;2022-08-19T06:32:31;91780.16;;;16.21;100.00
7660;BME280;3872;47.902;8.162;2022-08-19T06:34:58;91766.47;;;16.19;100.00
7660;BME280;3872;47.902;8.162;2022-08-19T06:37:24;91763.78;;;16.06;100.00
7660;BME280;3872;47.902;8.162;2022-08-19T06:39:51;91778.41;;;16.13;100.00
7660;BME280;3872;47.902;8.162;2022-08-19T06:42:17;91758.50;;;16.43;100.00
7660;BME280;3872;47.902;8.162;2022-08-19T06:44:47;91774.25;;;16.48;100.00
7660;BME280;3872;47.902;8.162;2022-08-19T06:47:17;91762.47;;;16.49;100.00
7660;BME280;3872;47.902;8.162;2022-08-19T06:49:43;91764.91;;;16.05;100.00
7660;BME280;3872;47.902;8.162;2022-08-19T06:52:11;91762.34;;;16.09;100.00
7660;BME280;3872;47.902;8.162;2022-08-19T06:54:38;91761.50;;;16.54;100.00
7660;BME280;3872;47.902;8.162;2022-08-19T06:57:05;91763.91;;;16.10;100.00
7660;BME280;3872;47.902;8.162;2022-08-19T06:59:34;91765.47;;;16.23;100.00
7660;BME280;3872;47.902;8.162;2022-08-19T07:02:05;91765.72;;;16.55;100.00
7660;BME280;3872;47.902;8.162;2022-08-19T07:04:33;91776.91;;;16.97;100.00
7660;BME280;3872;47.902;8.162;2022-08-19T07:07:01;91778.00;;;16.96;100.00
7660;BME280;3872;47.902;8.162;2022-08-19T07:09:31;91772.56;;;17.04;100.00
7660;BME280;3872;47.902;8.162;2022-08-19T07:11:58;91784.84;;;17.09;100.00
7660;BME280;3872;47.902;8.162;2022-08-19T07:14:26;91788.63;;;16.47;100.00
7660;BME280;3872;47.902;8.162;2022-08-19T07:16:55;91795.97;;;16.74;100.00
7660;BME280;3872;47.902;8.162;2022-08-19T07:19:25;91796.84;;;16.91;100.00
7660;BME280;3872;47.902;8.162;2022-08-19T07:21:53;91795.78;;;16.34;100.00
7660;BME280;3872;47.902;8.162;2022-08-19T07:24:21;91789.97;;;16.65;100.00
7660;BME280;3872;47.902;8.162;2022-08-19T07:26:51;91805.44;;;16.51;100.00
7660;BME280;3872;47.902;8.162;2022-08-19T07:29:19;91796.47;;;16.31;100.00
7660;BME280;3872;47.902;8.162;2022-08-19T07:31:48;91790.59;;;16.50;100.00
7660;BME280;3872;47.902;8.162;2022-08-19T07:34:15;91786.53;;;16.53;100.00
7660;BME280;3872;47.902;8.162;2022-08-19T07:36:43;91801.03;;;16.55;100.00
7660;BME280;3872;47.902;8.162;2022-08-19T07:39:12;91796.84;;;16.78;100.00
7660;BME280;3872;47.902;8.162;2022-08-19T07:41:39;91795.91;;;16.50;100.00
7660;BME280;3872;47.902;8.162;2022-08-19T07:44:08;91791.69;;;16.37;100.00
7660;BME280;3872;47.902;8.162;2022-08-19T07:46:37;91794.13;;;16.30;100.00
7660;BME280;3872;47.902;8.162;2022-08-19T07:49:06;91796.09;;;16.21;100.00
7660;BME280;3872;47.902;8.162;2022-08-19T07:51:33;91803.22;;;16.41;100.00
7660;BME280;3872;47.902;8.162;2022-08-19T07:54:01;91803.78;;;16.47;100.00
7660;BME280;3872;47.902;8.162;2022-08-19T07:56:28;91811.53;;;16.52;100.00
7660;BME280;3872;47.902;8.162;2022-08-19T07:58:54;91804.25;;;16.61;100.00
7660;BME280;3872;47.902;8.162;2022-08-19T08:01:23;91819.66;;;16.67;100.00
7660;BME280;3872;47.902;8.162;2022-08-19T08:03:51;91814.47;;;16.83;100.00
7660;BME280;3872;47.902;8.162;2022-08-19T08:06:36;91821.66;;;16.82;100.00
7660;BME280;3872;47.902;8.162;2022-08-19T08:09:24;91819.66;;;16.79;100.00
7660;BME280;3872;47.902;8.162;2022-08-19T08:11:53;91822.47;;;16.50;100.00
7660;BME280;3872;47.902;8.162;2022-08-19T08:14:25;91827.06;;;16.62;100.00
7660;BME280;3872;47.902;8.162;2022-08-19T08:16:52;91820.72;;;16.54;100.00
7660;BME280;3872;47.902;8.162;2022-08-19T08:19:20;91825.94;;;16.63;100.00
7660;BME280;3872;47.902;8.162;2022-08-19T08:21:47;91824.47;;;16.41;100.00
7660;BME280;3872;47.902;8.162;2022-08-19T08:24:15;91825.91;;;16.51;100.00
7660;BME280;3872;47.902;8.162;2022-08-19T08:26:43;91824.97;;;16.79;100.00
7660;BME280;3872;47.902;8.162;2022-08-19T08:29:10;91826.91;;;16.58;100.00
7660;BME280;3872;47.902;8.162;2022-08-19T08:31:38;91834.50;;;16.35;100.00
7660;BME280;3872;47.902;8.162;2022-08-19T08:34:05;91844.97;;;16.53;100.00
7660;BME280;3872;47.902;8.162;2022-08-19T08:36:31;91851.34;;;16.39;100.00
7660;BME280;3872;47.902;8.162;2022-08-19T08:38:59;91856.03;;;16.55;100.00
7660;BME280;3872;47.902;8.162;2022-08-19T08:41:31;91843.03;;;16.29;100.00
7660;BME280;3872;47.902;8.162;2022-08-19T08:44:03;91848.84;;;16.55;100.00
7660;BME280;3872;47.902;8.162;2022-08-19T08:46:34;91854.91;;;16.56;100.00
7660;BME280;3872;47.902;8.162;2022-08-19T08:49:09;91855.63;;;16.65;100.00
7660;BME280;3872;47.902;8.162;2022-08-19T08:51:42;91858.53;;;16.39;100.00
7660;BME280;3872;47.902;8.162;2022-08-19T08:54:12;91860.41;;;16.26;100.00
7660;BME280;3872;47.902;8.162;2022-08-19T08:56:41;91869.31;;;16.55;100.00
7660;BME280;3872;47.902;8.162;2022-08-19T08:59:16;91866.25;;;16.77;100.00
7660;BME280;3872;47.902;8.162;2022-08-19T09:01:45;91866.44;;;16.60;100.00
7660;BME280;3872;47.902;8.162;2022-08-19T09:04:12;91871.53;;;16.53;100.00
7660;BME280;3872;47.902;8.162;2022-08-19T09:06:48;91872.91;;;16.71;100.00
7660;BME280;3872;47.902;8.162;2022-08-19T09:09:21;91874.91;;;16.86;100.00
7660;BME280;3872;47.902;8.162;2022-08-19T09:11:56;91871.97;;;16.55;100.00
7660;BME280;3872;47.902;8.162;2022-08-19T09:14:35;91870.81;;;16.76;100.00
7660;BME280;3872;47.902;8.162;2022-08-19T09:17:07;91872.66;;;16.64;100.00
7660;BME280;3872;47.902;8.162;2022-08-19T09:19:34;91877.34;;;16.91;100.00
7660;BME280;3872;47.902;8.162;2022-08-19T09:22:01;91881.34;;;16.97;100.00
7660;BME280;3872;47.902;8.162;2022-08-19T09:24:28;91880.91;;;16.83;100.00
7660;BME280;3872;47.902;8.162;2022-08-19T09:26:54;91878.97;;;16.71;100.00
7660;BME280;3872;47.902;8.162;2022-08-19T09:29:21;91875.81;;;16.90;100.00
7660;BME280;3872;47.902;8.162;2022-08-19T09:31:49;91877.66;;;16.77;100.00
7660;BME280;3872;47.902;8.162;2022-08-19T09:34:16;91875.03;;;16.90;100.00
7660;BME280;3872;47.902;8.162;2022-08-19T09:36:45;91881.88;;;16.78;100.00
7660;BME280;3872;47.902;8.162;2022-08-19T09:39:11;91879.13;;;16.75;100.00
7660;BME280;3872;47.902;8.162;2022-08-19T09:41:38;91873.13;;;16.66;100.00
7660;BME280;3872;47.902;8.162;2022-08-19T09:44:04;91878.09;;;16.79;100.00
7660;BME280;3872;47.902;8.162;2022-08-19T09:46:31;91881.88;;;16.78;100.00
7660;BME280;3872;47.902;8.162;2022-08-19T09:49:00;91885.53;;;16.86;100.00
7660;BME280;3872;47.902;8.162;2022-08-19T09:51:27;91891.63;;;16.87;100.00
7660;BME280;3872;47.902;8.162;2022-08-19T09:53:59;91893.41;;;16.82;100.00
7660;BME280;3872;47.902;8.162;2022-08-19T09:56:26;91902.63;;;16.97;100.00
7660;BME280;3872;47.902;8.162;2022-08-19T09:58:53;91907.25;;;16.88;100.00
7660;BME280;3872;47.902;8.162;2022-08-19T10:01:22;91899.84;;;17.18;100.00
7660;BME280;3872;47.902;8.162;2022-08-19T10:03:50;91897.94;;;16.94;100.00
7660;BME280;3872;47.902;8.162;2022-08-19T10:06:19;91893.19;;;17.12;100.00
7660;BME280;3872;47.902;8.162;2022-08-19T10:08:46;91906.78;;;16.74;100.00
7660;BME280;3872;47.902;8.162;2022-08-19T10:11:13;91897.06;;;16.90;100.00
7660;BME280;3872;47.902;8.162;2022-08-19T10:13:43;91897.81;;;16.78;100.00
7660;BME280;3872;47.902;8.162;2022-08-19T10:16:11;91900.16;;;16.80;100.00
7660;BME280;3872;47.902;8.162;2022-08-19T10:18:38;91902.38;;;16.90;100.00
7660;BME280;3872;47.902;8.162;2022-08-19T10:21:10;91902.47;;;16.81;100.00
7660;BME280;3872;47.902;8.162;2022-08-19T10:23:41;91903.16;;;16.91;100.00
7660;BME280;3872;47.902;8.162;2022-08-19T10:26:14;91903.50;;;17.01;100.00
7660;BME280;3872;47.902;8.162;2022-08-19T10:28:42;91909.81;;;16.97;100.00
7660;BME280;3872;47.902;8.162;2022-08-19T10:31:10;91908.88;;;16.68;100.00
7660;BME280;3872;47.902;8.162;2022-08-19T10:33:38;91911.53;;;16.68;100.00
7660;BME280;3872;47.902;8.162;2022-08-19T10:36:08;91915.25;;;16.55;100.00
7660;BME280;3872;47.902;8.162;2022-08-19T10:38:36;91911.72;;;16.18;100.00
7660;BME280;3872;47.902;8.162;2022-08-19T10:41:08;91908.16;;;16.47;100.00
7660;BME280;3872;47.902;8.162;2022-08-19T10:43:35;91909.06;;;16.63;100.00
7660;BME280;3872;47.902;8.162;2022-08-19T10:46:04;91912.59;;;16.55;100.00
7660;BME280;3872;47.902;8.162;2022-08-19T10:48:31;91910.25;;;17.11;100.00
7660;BME280;3872;47.902;8.162;2022-08-19T10:50:58;91901.28;;;17.03;100.00
7660;BME280;3872;47.902;8.162;2022-08-19T10:53:42;91909.81;;;16.97;100.00
7660;BME280;3872;47.902;8.162;2022-08-19T10:56:10;91909.03;;;17.20;100.00
7660;BME280;3872;47.902;8.162;2022-08-19T10:58:54;91912.78;;;17.44;100.00
7660;BME280;3872;47.902;8.162;2022-08-19T11:01:23;91908.38;;;17.23;100.00
7660;BME280;3872;47.902;8.162;2022-08-19T11:03:50;91916.56;;;17.67;100.00
7660;BME280;3872;47.902;8.162;2022-08-19T11:06:16;91915.88;;;17.34;100.00
7660;BME280;3872;47.902;8.162;2022-08-19T11:08:43;91915.59;;;17.99;100.00
7660;BME280;3872;47.902;8.162;2022-08-19T11:11:12;91921.97;;;17.58;100.00
7660;BME280;3872;47.902;8.162;2022-08-19T11:13:40;91928.63;;;17.52;100.00
7660;BME280;3872;47.902;8.162;2022-08-19T11:16:11;91927.16;;;17.55;100.00
7660;BME280;3872;47.902;8.162;2022-08-19T11:18:41;91928.50;;;17.00;100.00
7660;BME280;3872;47.902;8.162;2022-08-19T11:21:11;91930.28;;;17.20;100.00
7660;BME280;3872;47.902;8.162;2022-08-19T11:23:38;91935.28;;;17.83;100.00
7660;BME280;3872;47.902;8.162;2022-08-19T11:26:05;91933.16;;;17.88;100.00
7660;BME280;3872;47.902;8.162;2022-08-19T11:28:33;91932.91;;;17.93;100.00
7660;BME280;3872;47.902;8.162;2022-08-19T11:31:00;91935.28;;;17.58;100.00
7660;BME280;3872;47.902;8.162;2022-08-19T11:33:28;91926.75;;;18.17;100.00
7660;BME280;3872;47.902;8.162;2022-08-19T11:35:57;91925.03;;;18.53;100.00
7660;BME280;3872;47.902;8.162;2022-08-19T11:38:23;91923.53;;;18.12;100.00
7660;BME280;3872;47.902;8.162;2022-08-19T11:40:55;91932.53;;;18.07;100.00
7660;BME280;3872;47.902;8.162;2022-08-19T11:43:22;91937.53;;;18.09;100.00
7660;BME280;3872;47.902;8.162;2022-08-19T11:45:50;91929.09;;;18.34;100.00
7660;BME280;3872;47.902;8.162;2022-08-19T11:48:17;91928.44;;;18.10;100.00
7660;BME280;3872;47.902;8.162;2022-08-19T11:50:47;91930.25;;;18.49;100.00
7660;BME280;3872;47.902;8.162;2022-08-19T11:53:14;91931.50;;;17.72;100.00
7660;BME280;3872;47.902;8.162;2022-08-19T11:55:41;91938.41;;;18.40;100.00
7660;BME280;3872;47.902;8.162;2022-08-19T11:58:08;91933.00;;;18.65;100.00
7660;BME280;3872;47.902;8.162;2022-08-19T12:00:34;91946.97;;;18.06;100.00
7660;BME280;3872;47.902;8.162;2022-08-19T12:03:03;91945.94;;;17.83;100.00
7660;BME280;3872;47.902;8.162;2022-08-19T12:05:29;91932.88;;;19.05;100.00
7660;BME280;3872;47.902;8.162;2022-08-19T12:07:56;91938.78;;;18.67;100.00
7660;BME280;3872;47.902;8.162;2022-08-19T12:10:23;91932.09;;;19.67;100.00
7660;BME280;3872;47.902;8.162;2022-08-19T12:12:50;91940.09;;;20.02;100.00
7660;BME280;3872;47.902;8.162;2022-08-19T12:15:17;91931.59;;;20.16;100.00
7660;BME280;3872;47.902;8.162;2022-08-19T12:17:43;91930.22;;;19.52;100.00
7660;BME280;3872;47.902;8.162;2022-08-19T12:20:13;91946.97;;;19.05;100.00
7660;BME280;3872;47.902;8.162;2022-08-19T12:22:41;91932.19;;;19.39;100.00
7660;BME280;3872;47.902;8.162;2022-08-19T12:25:09;91936.75;;;19.89;100.00
7660;BME280;3872;47.902;8.162;2022-08-19T12:27:35;91949.63;;;19.68;100.00
7660;BME280;3872;47.902;8.162;2022-08-19T12:30:02;91942.22;;;19.77;100.00
7660;BME280;3872;47.902;8.162;2022-08-19T12:32:29;91936.19;;;20.35;100.00
7660;BME280;3872;47.902;8.162;2022-08-19T12:34:56;91942.00;;;20.21;100.00
7660;BME280;3872;47.902;8.162;2022-08-19T12:37:24;91942.69;;;20.53;100.00
7660;BME280;3872;47.902;8.162;2022-08-19T12:39:50;91943.81;;;20.52;100.00
7660;BME280;3872;47.902;8.162;2022-08-19T12:42:17;91946.22;;;20.22;100.00
7660;BME280;3872;47.902;8.162;2022-08-19T12:44:44;91946.16;;;20.95;100.00
7660;BME280;3872;47.902;8.162;2022-08-19T12:47:11;91936.75;;;21.24;100.00
7660;BME280;3872;47.902;8.162;2022-08-19T12:49:39;91935.22;;;21.76;100.00
7660;BME280;3872;47.902;8.162;2022-08-19T12:52:07;91942.06;;;20.59;100.00
7660;BME280;3872;47.902;8.162;2022-08-19T12:54:36;91938.34;;;20.67;100.00
7660;BME280;3872;47.902;8.162;2022-08-19T12:57:05;91944.34;;;19.52;100.00
7660;BME280;3872;47.902;8.162;2022-08-19T12:59:33;91949.22;;;19.35;100.00
7660;BME280;3872;47.902;8.162;2022-08-19T13:02:00;91950.94;;;19.74;100.00
7660;BME280;3872;47.902;8.162;2022-08-19T13:04:26;91949.03;;;20.10;100.00
7660;BME280;3872;47.902;8.162;2022-08-19T13:06:53;91942.06;;;20.05;100.00
7660;BME280;3872;47.902;8.162;2022-08-19T13:09:19;91941.25;;;20.40;100.00
7660;BME280;3872;47.902;8.162;2022-08-19T13:11:47;91940.63;;;20.46;100.00
7660;BME280;3872;47.902;8.162;2022-08-19T13:14:14;91943.69;;;20.87;100.00
7660;BME280;3872;47.902;8.162;2022-08-19T13:16:40;91947.75;;;21.00;100.00